Terminal Aerodrome Forecast
Issued by NWS

Home | Current Version | Previous Version | Text Only | Print | Product List | Glossary Off
Versions: 1 2 3 4 5 6 7 8 9 10 11 12 13 14 15 16

000
FTUS43 KTOP 201523 AAA
TAFMHK
TAF AMD
KMHK 201523Z 2015/2112 25012G21KT 6SM -RA BR BKN010
     FM201700 27012G22KT P6SM BKN015
     FM201900 27013G22KT P6SM BKN020
     FM202100 27013G22KT P6SM BKN035
     FM210100 27009KT P6SM SCT040=

USA.gov is the U.S. government's official web portal to all federal, state and local government web resources and services.